sensor_id;sensor_type;location;lat;lon;timestamp;pressure;altitude;pressure_sealevel;temperature;humidity
14612;BME280;7392;52.078;11.650;2024-03-06T00:01:17;101213.84;;;3.32;100.00
14612;BME280;7392;52.078;11.650;2024-03-06T00:03:44;101219.09;;;3.32;100.00
14612;BME280;7392;52.078;11.650;2024-03-06T00:06:13;101227.75;;;3.29;100.00
14612;BME280;7392;52.078;11.650;2024-03-06T00:08:41;101226.00;;;3.28;100.00
14612;BME280;7392;52.078;11.650;2024-03-06T00:11:09;101229.31;;;3.24;100.00
14612;BME280;7392;52.078;11.650;2024-03-06T00:13:36;101228.38;;;3.22;100.00
14612;BME280;7392;52.078;11.650;2024-03-06T00:16:05;101235.25;;;3.18;100.00
14612;BME280;7392;52.078;11.650;2024-03-06T00:18:33;101237.81;;;3.17;100.00
14612;BME280;7392;52.078;11.650;2024-03-06T00:21:01;101235.03;;;3.12;100.00
14612;BME280;7392;52.078;11.650;2024-03-06T00:23:30;101246.38;;;3.11;100.00
14612;BME280;7392;52.078;11.650;2024-03-06T00:25:58;101242.75;;;3.08;100.00
14612;BME280;7392;52.078;11.650;2024-03-06T00:28:26;101247.00;;;3.04;100.00
14612;BME280;7392;52.078;11.650;2024-03-06T00:30:53;101251.22;;;3.00;100.00
14612;BME280;7392;52.078;11.650;2024-03-06T00:33:21;101250.16;;;2.95;100.00
14612;BME280;7392;52.078;11.650;2024-03-06T00:35:48;101258.84;;;2.93;100.00
14612;BME280;7392;52.078;11.650;2024-03-06T00:38:16;101256.16;;;2.91;100.00
14612;BME280;7392;52.078;11.650;2024-03-06T00:40:46;101255.09;;;2.86;100.00
14612;BME280;7392;52.078;11.650;2024-03-06T00:43:13;101259.44;;;2.86;100.00
14612;BME280;7392;52.078;11.650;2024-03-06T00:45:41;101260.28;;;2.85;100.00
14612;BME280;7392;52.078;11.650;2024-03-06T00:48:09;101263.69;;;2.82;100.00
14612;BME280;7392;52.078;11.650;2024-03-06T00:50:36;101258.38;;;2.80;100.00
14612;BME280;7392;52.078;11.650;2024-03-06T00:53:04;101264.47;;;2.79;100.00
14612;BME280;7392;52.078;11.650;2024-03-06T00:55:32;101262.63;;;2.77;100.00
14612;BME280;7392;52.078;11.650;2024-03-06T00:58:01;101263.44;;;2.76;100.00
14612;BME280;7392;52.078;11.650;2024-03-06T01:00:29;101263.38;;;2.74;100.00
14612;BME280;7392;52.078;11.650;2024-03-06T01:02:57;101263.31;;;2.73;100.00
14612;BME280;7392;52.078;11.650;2024-03-06T01:05:24;101267.69;;;2.72;100.00
14612;BME280;7392;52.078;11.650;2024-03-06T01:07:52;101271.13;;;2.71;100.00
14612;BME280;7392;52.078;11.650;2024-03-06T01:10:21;101270.19;;;2.69;100.00
14612;BME280;7392;52.078;11.650;2024-03-06T01:12:49;101268.41;;;2.68;100.00
14612;BME280;7392;52.078;11.650;2024-03-06T01:15:18;101276.22;;;2.67;100.00
14612;BME280;7392;52.078;11.650;2024-03-06T01:17:45;101281.47;;;2.67;100.00
14612;BME280;7392;52.078;11.650;2024-03-06T01:20:13;101283.19;;;2.66;100.00
14612;BME280;7392;52.078;11.650;2024-03-06T01:22:41;101286.66;;;2.65;100.00
14612;BME280;7392;52.078;11.650;2024-03-06T01:25:09;101290.16;;;2.66;100.00
14612;BME280;7392;52.078;11.650;2024-03-06T01:27:37;101284.84;;;2.64;100.00
14612;BME280;7392;52.078;11.650;2024-03-06T01:30:05;101290.09;;;2.64;100.00
14612;BME280;7392;52.078;11.650;2024-03-06T01:32:34;101284.78;;;2.62;100.00
14612;BME280;7392;52.078;11.650;2024-03-06T01:35:03;101285.66;;;2.61;100.00
14612;BME280;7392;52.078;11.650;2024-03-06T01:37:31;101285.66;;;2.61;100.00
14612;BME280;7392;52.078;11.650;2024-03-06T01:39:59;101294.34;;;2.60;100.00
14612;BME280;7392;52.078;11.650;2024-03-06T01:42:26;101295.22;;;2.61;100.00
14612;BME280;7392;52.078;11.650;2024-03-06T01:44:56;101292.53;;;2.59;100.00
14612;BME280;7392;52.078;11.650;2024-03-06T01:47:24;101296.00;;;2.58;100.00
14612;BME280;7392;52.078;11.650;2024-03-06T01:49:53;101299.47;;;2.57;100.00
14612;BME280;7392;52.078;11.650;2024-03-06T01:52:21;101300.34;;;2.58;100.00
14612;BME280;7392;52.078;11.650;2024-03-06T01:54:50;101296.84;;;2.57;100.00
14612;BME280;7392;52.078;11.650;2024-03-06T01:57:19;101300.31;;;2.56;100.00
14612;BME280;7392;52.078;11.650;2024-03-06T01:59:47;101304.63;;;2.56;100.00
14612;BME280;7392;52.078;11.650;2024-03-06T02:02:16;101297.63;;;2.55;100.00
14612;BME280;7392;52.078;11.650;2024-03-06T02:04:43;101311.56;;;2.54;100.00
14612;BME280;7392;52.078;11.650;2024-03-06T02:07:14;101308.94;;;2.54;100.00
14612;BME280;7392;52.078;11.650;2024-03-06T02:09:43;101308.94;;;2.54;100.00
14612;BME280;7392;52.078;11.650;2024-03-06T02:12:11;101308.94;;;2.54;100.00
14612;BME280;7392;52.078;11.650;2024-03-06T02:14:38;101305.38;;;2.52;100.00
14612;BME280;7392;52.078;11.650;2024-03-06T02:17:06;101311.50;;;2.52;100.00
14612;BME280;7392;52.078;11.650;2024-03-06T02:19:38;101310.56;;;2.50;100.00
14612;BME280;7392;52.078;11.650;2024-03-06T02:22:08;101308.88;;;2.52;100.00
14612;BME280;7392;52.078;11.650;2024-03-06T02:24:36;101310.56;;;2.50;100.00
14612;BME280;7392;52.078;11.650;2024-03-06T02:27:04;101304.41;;;2.50;100.00
14612;BME280;7392;52.078;11.650;2024-03-06T02:29:32;101308.75;;;2.49;100.00
14612;BME280;7392;52.078;11.650;2024-03-06T02:32:00;101303.50;;;2.49;100.00
14612;BME280;7392;52.078;11.650;2024-03-06T02:34:29;101304.34;;;2.48;100.00
14612;BME280;7392;52.078;11.650;2024-03-06T02:36:57;101304.28;;;2.47;100.00
14612;BME280;7392;52.078;11.650;2024-03-06T02:39:26;101309.53;;;2.47;100.00
14612;BME280;7392;52.078;11.650;2024-03-06T02:41:54;101310.34;;;2.46;100.00
14612;BME280;7392;52.078;11.650;2024-03-06T02:44:21;101321.69;;;2.45;100.00
14612;BME280;7392;52.078;11.650;2024-03-06T02:46:50;101319.09;;;2.45;100.00
14612;BME280;7392;52.078;11.650;2024-03-06T02:49:18;101312.91;;;2.44;100.00
14612;BME280;7392;52.078;11.650;2024-03-06T02:51:46;101312.84;;;2.42;100.00
14612;BME280;7392;52.078;11.650;2024-03-06T02:54:14;101312.84;;;2.42;100.00
14612;BME280;7392;52.078;11.650;2024-03-06T02:56:42;101312.81;;;2.41;100.00
14612;BME280;7392;52.078;11.650;2024-03-06T02:59:10;101312.75;;;2.39;100.00
14612;BME280;7392;52.078;11.650;2024-03-06T03:01:40;101311.84;;;2.39;100.00
14612;BME280;7392;52.078;11.650;2024-03-06T03:04:09;101322.31;;;2.39;100.00
14612;BME280;7392;52.078;11.650;2024-03-06T03:06:37;101325.81;;;2.38;100.00
14612;BME280;7392;52.078;11.650;2024-03-06T03:09:05;101325.81;;;2.38;100.00
14612;BME280;7392;52.078;11.650;2024-03-06T03:11:32;101322.22;;;2.36;100.00
14612;BME280;7392;52.078;11.650;2024-03-06T03:14:03;101315.13;;;2.33;100.00
14612;BME280;7392;52.078;11.650;2024-03-06T03:16:31;101325.59;;;2.33;100.00
14612;BME280;7392;52.078;11.650;2024-03-06T03:18:59;101322.03;;;2.31;100.00
14612;BME280;7392;52.078;11.650;2024-03-06T03:21:26;101331.56;;;2.29;100.00
14612;BME280;7392;52.078;11.650;2024-03-06T03:23:54;101322.78;;;2.29;100.00
14612;BME280;7392;52.078;11.650;2024-03-06T03:26:22;101323.63;;;2.28;100.00
14612;BME280;7392;52.078;11.650;2024-03-06T03:28:49;101322.72;;;2.27;100.00
14612;BME280;7392;52.078;11.650;2024-03-06T03:31:19;101326.25;;;2.28;100.00
14612;BME280;7392;52.078;11.650;2024-03-06T03:33:47;101330.59;;;2.27;100.00
14612;BME280;7392;52.078;11.650;2024-03-06T03:36:15;101334.13;;;2.28;100.00
14612;BME280;7392;52.078;11.650;2024-03-06T03:38:43;101341.03;;;2.26;100.00
14612;BME280;7392;52.078;11.650;2024-03-06T03:41:11;101334.94;;;2.27;100.00
14612;BME280;7392;52.078;11.650;2024-03-06T03:43:40;101340.19;;;2.27;100.00
14612;BME280;7392;52.078;11.650;2024-03-06T03:46:08;101343.69;;;2.27;100.00
14612;BME280;7392;52.078;11.650;2024-03-06T03:48:38;101355.84;;;2.25;100.00
14612;BME280;7392;52.078;11.650;2024-03-06T03:51:06;101357.66;;;2.26;100.00
14612;BME280;7392;52.078;11.650;2024-03-06T03:53:34;101352.34;;;2.24;100.00
14612;BME280;7392;52.078;11.650;2024-03-06T03:56:02;101363.72;;;2.25;100.00
14612;BME280;7392;52.078;11.650;2024-03-06T03:58:30;101361.88;;;2.22;100.00
14612;BME280;7392;52.078;11.650;2024-03-06T04:00:58;101360.06;;;2.21;100.00
14612;BME280;7392;52.078;11.650;2024-03-06T04:03:27;101362.63;;;2.20;100.00
14612;BME280;7392;52.078;11.650;2024-03-06T04:05:55;101366.09;;;2.19;100.00
14612;BME280;7392;52.078;11.650;2024-03-06T04:08:23;101370.44;;;2.18;100.00
14612;BME280;7392;52.078;11.650;2024-03-06T04:10:51;101367.72;;;2.15;100.00
14612;BME280;7392;52.078;11.650;2024-03-06T04:13:19;101366.78;;;2.15;100.00
14612;BME280;7392;52.078;11.650;2024-03-06T04:15:47;101372.88;;;2.14;100.00
14612;BME280;7392;52.078;11.650;2024-03-06T04:18:15;101374.59;;;2.13;100.00
14612;BME280;7392;52.078;11.650;2024-03-06T04:20:43;101377.19;;;2.13;100.00
14612;BME280;7392;52.078;11.650;2024-03-06T04:23:12;101376.31;;;2.13;100.00
14612;BME280;7392;52.078;11.650;2024-03-06T04:25:40;101393.72;;;2.11;100.00
14612;BME280;7392;52.078;11.650;2024-03-06T04:28:07;101383.16;;;2.09;100.00
14612;BME280;7392;52.078;11.650;2024-03-06T04:30:35;101383.91;;;2.06;100.00
14612;BME280;7392;52.078;11.650;2024-03-06T04:33:02;101388.25;;;2.06;100.00
14612;BME280;7392;52.078;11.650;2024-03-06T04:35:31;101382.88;;;2.03;100.00
14612;BME280;7392;52.078;11.650;2024-03-06T04:37:58;101388.03;;;2.00;100.00
14612;BME280;7392;52.078;11.650;2024-03-06T04:40:29;101395.75;;;1.97;100.00
14612;BME280;7392;52.078;11.650;2024-03-06T04:42:58;101393.81;;;1.93;100.00
14612;BME280;7392;52.078;11.650;2024-03-06T04:45:26;101389.34;;;1.90;100.00
14612;BME280;7392;52.078;11.650;2024-03-06T04:47:55;101404.78;;;1.84;100.00
14612;BME280;7392;52.078;11.650;2024-03-06T04:50:22;101403.81;;;1.82;100.00
14612;BME280;7392;52.078;11.650;2024-03-06T04:52:50;101405.41;;;1.78;100.00
14612;BME280;7392;52.078;11.650;2024-03-06T04:55:18;101415.75;;;1.75;100.00
14612;BME280;7392;52.078;11.650;2024-03-06T04:57:50;101413.00;;;1.72;100.00
14612;BME280;7392;52.078;11.650;2024-03-06T05:00:18;101411.97;;;1.68;100.00
14612;BME280;7392;52.078;11.650;2024-03-06T05:02:45;101421.41;;;1.65;100.00
14612;BME280;7392;52.078;11.650;2024-03-06T05:05:33;101416.94;;;1.62;100.00
14612;BME280;7392;52.078;11.650;2024-03-06T05:08:18;101429.91;;;1.59;100.00
14612;BME280;7392;52.078;11.650;2024-03-06T05:11:04;101435.88;;;1.57;100.00
14612;BME280;7392;52.078;11.650;2024-03-06T05:13:51;101440.16;;;1.55;100.00
14612;BME280;7392;52.078;11.650;2024-03-06T05:16:36;101435.69;;;1.52;100.00
14612;BME280;7392;52.078;11.650;2024-03-06T05:19:22;101440.78;;;1.49;100.00
14612;BME280;7392;52.078;11.650;2024-03-06T05:22:07;101437.22;;;1.47;100.00
14612;BME280;7392;52.078;11.650;2024-03-06T05:24:53;101440.63;;;1.46;100.00
14612;BME280;7392;52.078;11.650;2024-03-06T05:27:42;101444.00;;;1.43;100.00
14612;BME280;7392;52.078;11.650;2024-03-06T05:30:29;101439.53;;;1.41;100.00
14612;BME280;7392;52.078;11.650;2024-03-06T05:33:15;101447.25;;;1.38;100.00
14612;BME280;7392;52.078;11.650;2024-03-06T05:36:00;101451.50;;;1.36;100.00
14612;BME280;7392;52.078;11.650;2024-03-06T05:38:46;101455.72;;;1.32;100.00
14612;BME280;7392;52.078;11.650;2024-03-06T05:41:32;101460.88;;;1.30;100.00
14612;BME280;7392;52.078;11.650;2024-03-06T05:44:18;101460.72;;;1.27;100.00
14612;BME280;7392;52.078;11.650;2024-03-06T05:47:04;101459.69;;;1.24;100.00
14612;BME280;7392;52.078;11.650;2024-03-06T05:49:51;101465.66;;;1.21;100.00
14612;BME280;7392;52.078;11.650;2024-03-06T05:52:36;101473.31;;;1.17;100.00
14612;BME280;7392;52.078;11.650;2024-03-06T05:55:22;101472.34;;;1.15;100.00
14612;BME280;7392;52.078;11.650;2024-03-06T05:58:07;101480.84;;;1.10;100.00
14612;BME280;7392;52.078;11.650;2024-03-06T06:00:38;101487.66;;;1.07;100.00
14612;BME280;7392;52.078;11.650;2024-03-06T06:03:08;101488.44;;;1.04;100.00
14612;BME280;7392;52.078;11.650;2024-03-06T06:05:38;101485.66;;;1.01;100.00
14612;BME280;7392;52.078;11.650;2024-03-06T06:08:06;101493.34;;;0.98;100.00
14612;BME280;7392;52.078;11.650;2024-03-06T06:10:34;101494.03;;;0.94;100.00
14612;BME280;7392;52.078;11.650;2024-03-06T06:13:02;101499.13;;;0.91;100.00
14612;BME280;7392;52.078;11.650;2024-03-06T06:15:32;101504.19;;;0.88;100.00
14612;BME280;7392;52.078;11.650;2024-03-06T06:17:59;101505.00;;;0.87;100.00
14612;BME280;7392;52.078;11.650;2024-03-06T06:20:29;101509.28;;;0.85;100.00
14612;BME280;7392;52.078;11.650;2024-03-06T06:22:57;101514.41;;;0.83;100.00
14612;BME280;7392;52.078;11.650;2024-03-06T06:25:25;101515.25;;;0.82;100.00
14612;BME280;7392;52.078;11.650;2024-03-06T06:27:52;101517.88;;;0.82;100.00
14612;BME280;7392;52.078;11.650;2024-03-06T06:30:20;101519.56;;;0.82;100.00
14612;BME280;7392;52.078;11.650;2024-03-06T06:32:47;101526.53;;;0.81;100.00
14612;BME280;7392;52.078;11.650;2024-03-06T06:35:15;101535.34;;;0.83;100.00
14612;BME280;7392;52.078;11.650;2024-03-06T06:37:44;101534.53;;;0.84;100.00
14612;BME280;7392;52.078;11.650;2024-03-06T06:40:13;101538.88;;;0.84;100.00
14612;BME280;7392;52.078;11.650;2024-03-06T06:42:44;101540.75;;;0.86;100.00
14612;BME280;7392;52.078;11.650;2024-03-06T06:45:14;101540.97;;;0.91;100.00
14612;BME280;7392;52.078;11.650;2024-03-06T06:47:41;101548.06;;;0.93;100.00
14612;BME280;7392;52.078;11.650;2024-03-06T06:50:09;101548.22;;;0.97;100.00
14612;BME280;7392;52.078;11.650;2024-03-06T06:52:38;101555.34;;;0.99;100.00
14612;BME280;7392;52.078;11.650;2024-03-06T06:55:08;101551.06;;;1.01;100.00
14612;BME280;7392;52.078;11.650;2024-03-06T06:57:38;101559.09;;;1.04;100.00
14612;BME280;7392;52.078;11.650;2024-03-06T07:00:07;101560.94;;;1.07;100.00
14612;BME280;7392;52.078;11.650;2024-03-06T07:02:38;101567.13;;;1.09;100.00
14612;BME280;7392;52.078;11.650;2024-03-06T07:05:07;101569.03;;;1.11;100.00
14612;BME280;7392;52.078;11.650;2024-03-06T07:07:35;101576.13;;;1.14;100.00
14612;BME280;7392;52.078;11.650;2024-03-06T07:10:05;101578.00;;;1.17;100.00
14612;BME280;7392;52.078;11.650;2024-03-06T07:12:35;101571.13;;;1.19;100.00
14612;BME280;7392;52.078;11.650;2024-03-06T07:15:03;101569.53;;;1.22;100.00
14612;BME280;7392;52.078;11.650;2024-03-06T07:17:31;101580.00;;;1.22;100.00
14612;BME280;7392;52.078;11.650;2024-03-06T07:19:59;101574.84;;;1.24;100.00
14612;BME280;7392;52.078;11.650;2024-03-06T07:22:27;101572.25;;;1.24;100.00
14612;BME280;7392;52.078;11.650;2024-03-06T07:24:55;101579.28;;;1.25;100.00
14612;BME280;7392;52.078;11.650;2024-03-06T07:27:22;101580.25;;;1.27;100.00
14612;BME280;7392;52.078;11.650;2024-03-06T07:29:51;101589.88;;;1.28;100.00
14612;BME280;7392;52.078;11.650;2024-03-06T07:32:20;101589.16;;;1.30;100.00
14612;BME280;7392;52.078;11.650;2024-03-06T07:34:47;101589.22;;;1.32;100.00
14612;BME280;7392;52.078;11.650;2024-03-06T07:37:15;101589.31;;;1.34;100.00
14612;BME280;7392;52.078;11.650;2024-03-06T07:39:43;101599.94;;;1.37;100.00
14612;BME280;7392;52.078;11.650;2024-03-06T07:42:10;101598.34;;;1.40;100.00
14612;BME280;7392;52.078;11.650;2024-03-06T07:44:39;101602.00;;;1.44;100.00
14612;BME280;7392;52.078;11.650;2024-03-06T07:47:08;101600.38;;;1.46;100.00
14612;BME280;7392;52.078;11.650;2024-03-06T07:49:36;101604.03;;;1.49;100.00
14612;BME280;7392;52.078;11.650;2024-03-06T07:52:04;101612.09;;;1.54;100.00
14612;BME280;7392;52.078;11.650;2024-03-06T07:54:31;101613.97;;;1.57;100.00
14612;BME280;7392;52.078;11.650;2024-03-06T07:57:00;101610.69;;;1.61;100.00
14612;BME280;7392;52.078;11.650;2024-03-06T07:59:27;101617.03;;;1.66;100.00
14612;BME280;7392;52.078;11.650;2024-03-06T08:01:55;101616.34;;;1.70;100.00
14612;BME280;7392;52.078;11.650;2024-03-06T08:04:24;101618.34;;;1.76;100.00
14612;BME280;7392;52.078;11.650;2024-03-06T08:06:53;101624.63;;;1.79;100.00
14612;BME280;7392;52.078;11.650;2024-03-06T08:09:21;101624.94;;;1.85;100.00
14612;BME280;7392;52.078;11.650;2024-03-06T08:11:50;101622.63;;;1.92;100.00
14612;BME280;7392;52.078;11.650;2024-03-06T08:14:18;101620.19;;;1.96;100.00
14612;BME280;7392;52.078;11.650;2024-03-06T08:16:46;101617.88;;;2.02;100.00
14612;BME280;7392;52.078;11.650;2024-03-06T08:19:14;101624.28;;;2.09;100.00
14612;BME280;7392;52.078;11.650;2024-03-06T08:21:43;101628.09;;;2.16;100.00
14612;BME280;7392;52.078;11.650;2024-03-06T08:24:10;101625.81;;;2.23;100.00
14612;BME280;7392;52.078;11.650;2024-03-06T08:26:38;101627.91;;;2.31;100.00
14612;BME280;7392;52.078;11.650;2024-03-06T08:29:06;101633.47;;;2.38;100.00
14612;BME280;7392;52.078;11.650;2024-03-06T08:31:34;101626.88;;;2.47;100.00
14612;BME280;7392;52.078;11.650;2024-03-06T08:34:01;101636.06;;;2.56;100.00
14612;BME280;7392;52.078;11.650;2024-03-06T08:36:30;101637.34;;;2.66;100.00
14612;BME280;7392;52.078;11.650;2024-03-06T08:38:59;101641.34;;;2.77;100.00
14612;BME280;7392;52.078;11.650;2024-03-06T08:41:27;101648.84;;;2.89;100.00
14612;BME280;7392;52.078;11.650;2024-03-06T08:43:55;101648.50;;;3.01;100.00
14612;BME280;7392;52.078;11.650;2024-03-06T08:46:22;101649.06;;;3.15;100.00
14612;BME280;7392;52.078;11.650;2024-03-06T08:48:51;101646.19;;;3.30;100.00
14612;BME280;7392;52.078;11.650;2024-03-06T08:51:18;101649.47;;;3.45;100.00
14612;BME280;7392;52.078;11.650;2024-03-06T08:53:48;101650.19;;;3.64;100.00
14612;BME280;7392;52.078;11.650;2024-03-06T08:56:17;101647.34;;;3.80;100.00
14612;BME280;7392;52.078;11.650;2024-03-06T08:58:45;101648.06;;;3.99;100.00
14612;BME280;7392;52.078;11.650;2024-03-06T09:01:12;101654.06;;;4.17;100.00
14612;BME280;7392;52.078;11.650;2024-03-06T09:03:41;101649.53;;;4.37;100.00
14612;BME280;7392;52.078;11.650;2024-03-06T09:06:08;101641.44;;;4.55;100.00
14612;BME280;7392;52.078;11.650;2024-03-06T09:08:37;101648.25;;;4.74;100.00
14612;BME280;7392;52.078;11.650;2024-03-06T09:11:04;101654.19;;;4.93;100.00
14612;BME280;7392;52.078;11.650;2024-03-06T09:13:34;101653.91;;;5.11;100.00
14612;BME280;7392;52.078;11.650;2024-03-06T09:16:03;101644.97;;;5.31;100.00
14612;BME280;7392;52.078;11.650;2024-03-06T09:18:31;101652.69;;;5.52;100.00
14612;BME280;7392;52.078;11.650;2024-03-06T09:20:58;101653.34;;;5.72;100.00
14612;BME280;7392;52.078;11.650;2024-03-06T09:23:26;101659.16;;;5.91;100.00
14612;BME280;7392;52.078;11.650;2024-03-06T09:25:56;101652.78;;;6.10;100.00
14612;BME280;7392;52.078;11.650;2024-03-06T09:28:24;101654.28;;;6.30;100.00
14612;BME280;7392;52.078;11.650;2024-03-06T09:30:53;101666.31;;;6.51;100.00
14612;BME280;7392;52.078;11.650;2024-03-06T09:33:21;101663.38;;;6.72;100.00
14612;BME280;7392;52.078;11.650;2024-03-06T09:35:49;101664.78;;;6.91;100.00
14612;BME280;7392;52.078;11.650;2024-03-06T09:38:17;101665.28;;;7.09;98.75
14612;BME280;7392;52.078;11.650;2024-03-06T09:40:46;101665.88;;;7.31;97.69
14612;BME280;7392;52.078;11.650;2024-03-06T09:43:15;101662.78;;;7.49;96.21
14612;BME280;7392;52.078;11.650;2024-03-06T09:45:46;101664.00;;;7.62;93.38
14612;BME280;7392;52.078;11.650;2024-03-06T09:48:19;101660.78;;;7.77;91.47
14612;BME280;7392;52.078;11.650;2024-03-06T09:50:49;101663.91;;;7.97;90.89
14612;BME280;7392;52.078;11.650;2024-03-06T09:53:18;101666.03;;;8.12;89.35
14612;BME280;7392;52.078;11.650;2024-03-06T09:55:48;101661.81;;;8.20;85.05
14612;BME280;7392;52.078;11.650;2024-03-06T09:58:17;101665.66;;;8.36;84.82
14612;BME280;7392;52.078;11.650;2024-03-06T10:00:46;101667.88;;;8.55;84.63
14612;BME280;7392;52.078;11.650;2024-03-06T10:03:16;101667.38;;;8.73;83.78
14612;BME280;7392;52.078;11.650;2024-03-06T10:05:44;101672.84;;;8.84;81.02
14612;BME280;7392;52.078;11.650;2024-03-06T10:08:12;101674.00;;;8.97;79.72
14612;BME280;7392;52.078;11.650;2024-03-06T10:10:43;101677.06;;;9.20;80.69
14612;BME280;7392;52.078;11.650;2024-03-06T10:13:12;101666.88;;;9.43;80.43
14612;BME280;7392;52.078;11.650;2024-03-06T10:15:40;101672.56;;;9.66;79.76
14612;BME280;7392;52.078;11.650;2024-03-06T10:18:11;101673.75;;;9.87;78.30
14612;BME280;7392;52.078;11.650;2024-03-06T10:20:41;101675.91;;;10.13;78.82
14612;BME280;7392;52.078;11.650;2024-03-06T10:23:11;101678.91;;;10.34;78.12
14612;BME280;7392;52.078;11.650;2024-03-06T10:25:39;101680.09;;;10.56;77.56
14612;BME280;7392;52.078;11.650;2024-03-06T10:28:08;101682.94;;;10.72;75.91
14612;BME280;7392;52.078;11.650;2024-03-06T10:30:38;101686.66;;;10.88;74.08
14612;BME280;7392;52.078;11.650;2024-03-06T10:33:10;101684.19;;;11.04;73.48
14612;BME280;7392;52.078;11.650;2024-03-06T10:35:41;101689.72;;;11.25;72.97
14612;BME280;7392;52.078;11.650;2024-03-06T10:38:09;101686.34;;;11.44;72.54
14612;BME280;7392;52.078;11.650;2024-03-06T10:40:39;101685.66;;;11.64;71.09
14612;BME280;7392;52.078;11.650;2024-03-06T10:43:08;101690.19;;;11.80;70.30
14612;BME280;7392;52.078;11.650;2024-03-06T10:45:40;101695.66;;;11.95;69.56
14612;BME280;7392;52.078;11.650;2024-03-06T10:48:09;101694.88;;;12.09;68.84
14612;BME280;7392;52.078;11.650;2024-03-06T10:50:40;101692.28;;;12.20;68.47
14612;BME280;7392;52.078;11.650;2024-03-06T10:53:11;101688.78;;;12.31;67.60
14612;BME280;7392;52.078;11.650;2024-03-06T10:55:46;101696.84;;;12.42;66.85
14612;BME280;7392;52.078;11.650;2024-03-06T10:58:13;101695.13;;;12.50;66.20
14612;BME280;7392;52.078;11.650;2024-03-06T11:00:44;101679.16;;;12.57;65.27
14612;BME280;7392;52.078;11.650;2024-03-06T11:03:14;101688.97;;;12.67;64.28
14612;BME280;7392;52.078;11.650;2024-03-06T11:05:45;101695.22;;;12.78;63.83
14612;BME280;7392;52.078;11.650;2024-03-06T11:08:15;101682.84;;;12.88;62.97
14612;BME280;7392;52.078;11.650;2024-03-06T11:10:43;101688.16;;;12.94;62.34
14612;BME280;7392;52.078;11.650;2024-03-06T11:13:21;101688.19;;;13.02;62.00
14612;BME280;7392;52.078;11.650;2024-03-06T11:15:50;101696.19;;;13.08;61.25
14612;BME280;7392;52.078;11.650;2024-03-06T11:18:43;101691.78;;;13.18;60.67
14612;BME280;7392;52.078;11.650;2024-03-06T11:21:30;101694.47;;;13.21;59.94
14612;BME280;7392;52.078;11.650;2024-03-06T11:24:18;101691.81;;;13.21;59.30
14612;BME280;7392;52.078;11.650;2024-03-06T11:26:54;101688.22;;;13.23;57.51
14612;BME280;7392;52.078;11.650;2024-03-06T11:29:24;101702.50;;;13.32;58.08
14612;BME280;7392;52.078;11.650;2024-03-06T11:32:00;101697.19;;;13.35;57.61
14612;BME280;7392;52.078;11.650;2024-03-06T11:34:29;101693.66;;;13.46;57.41
14612;BME280;7392;52.078;11.650;2024-03-06T11:36:59;101697.22;;;13.53;57.56
14612;BME280;7392;52.078;11.650;2024-03-06T11:39:33;101704.31;;;13.60;56.92
14612;BME280;7392;52.078;11.650;2024-03-06T11:42:04;101699.88;;;13.72;56.56
14612;BME280;7392;52.078;11.650;2024-03-06T11:44:35;101700.75;;;13.83;56.13
14612;BME280;7392;52.078;11.650;2024-03-06T11:47:05;101701.66;;;13.93;55.99
14612;BME280;7392;52.078;11.650;2024-03-06T11:49:34;101690.94;;;14.08;56.04
14612;BME280;7392;52.078;11.650;2024-03-06T11:52:06;101704.28;;;14.20;55.86
14612;BME280;7392;52.078;11.650;2024-03-06T11:54:35;101694.47;;;14.35;55.24
14612;BME280;7392;52.078;11.650;2024-03-06T11:57:04;101698.88;;;14.45;55.25
14612;BME280;7392;52.078;11.650;2024-03-06T11:59:33;101711.31;;;14.60;55.40
14612;BME280;7392;52.078;11.650;2024-03-06T12:02:03;101712.16;;;14.74;55.08
14612;BME280;7392;52.078;11.650;2024-03-06T12:04:33;101709.44;;;14.87;55.21
14612;BME280;7392;52.078;11.650;2024-03-06T12:07:02;101695.97;;;15.04;54.73
14612;BME280;7392;52.078;11.650;2024-03-06T12:09:35;101710.13;;;15.23;54.64
14612;BME280;7392;52.078;11.650;2024-03-06T12:12:08;101692.22;;;15.36;54.40
14612;BME280;7392;52.078;11.650;2024-03-06T12:14:37;101700.16;;;15.46;54.05
14612;BME280;7392;52.078;11.650;2024-03-06T12:17:11;101705.41;;;15.60;53.50
14612;BME280;7392;52.078;11.650;2024-03-06T12:19:42;101701.03;;;15.47;48.44
14612;BME280;7392;52.078;11.650;2024-03-06T12:22:10;101700.06;;;15.59;49.40
14612;BME280;7392;52.078;11.650;2024-03-06T12:24:39;101695.50;;;15.70;49.99
14612;BME280;7392;52.078;11.650;2024-03-06T12:27:07;101707.03;;;15.83;50.15
14612;BME280;7392;52.078;11.650;2024-03-06T12:29:35;101696.19;;;15.95;49.97
14612;BME280;7392;52.078;11.650;2024-03-06T12:32:15;101696.97;;;16.10;50.11
14612;BME280;7392;52.078;11.650;2024-03-06T12:34:45;101698.66;;;16.17;48.47
14612;BME280;7392;52.078;11.650;2024-03-06T12:37:29;101696.84;;;16.19;47.10
14612;BME280;7392;52.078;11.650;2024-03-06T12:40:00;101701.31;;;16.21;47.10
14612;BME280;7392;52.078;11.650;2024-03-06T12:42:27;101688.66;;;16.31;47.27
14612;BME280;7392;52.078;11.650;2024-03-06T12:44:55;101687.66;;;16.43;47.32
14612;BME280;7392;52.078;11.650;2024-03-06T12:47:23;101680.34;;;16.57;47.14
14612;BME280;7392;52.078;11.650;2024-03-06T12:49:51;101673.97;;;16.66;46.73
14612;BME280;7392;52.078;11.650;2024-03-06T12:52:19;101680.19;;;16.70;45.64
14612;BME280;7392;52.078;11.650;2024-03-06T12:54:47;101682.91;;;16.67;45.14
14612;BME280;7392;52.078;11.650;2024-03-06T12:57:17;101685.47;;;16.76;45.67
14612;BME280;7392;52.078;11.650;2024-03-06T12:59:45;101688.03;;;16.88;45.42
14612;BME280;7392;52.078;11.650;2024-03-06T13:02:12;101686.16;;;16.95;44.71
14612;BME280;7392;52.078;11.650;2024-03-06T13:04:40;101675.22;;;17.09;44.84